createdAt,value
2018-01-31T21:33:05.789Z,37.58
2018-01-31T21:34:05.537Z,36.71
2018-01-31T21:35:05.482Z,37.00
2018-01-31T21:36:05.454Z,36.90
2018-01-31T21:37:05.420Z,37.10
2018-01-31T21:38:05.384Z,36.80
2018-01-31T21:39:05.385Z,37.00
2018-01-31T21:40:05.322Z,36.90
2018-01-31T21:41:05.284Z,37.00
2018-01-31T21:42:05.252Z,37.00
2018-01-31T21:43:05.218Z,37.10
2018-01-31T21:44:05.217Z,37.10
2018-01-31T21:45:05.157Z,37.10
2018-01-31T21:46:05.123Z,37.00
2018-01-31T21:47:05.089Z,37.19
2018-01-31T21:48:05.059Z,36.90
2018-01-31T21:49:05.056Z,36.90
2018-01-31T21:50:04.987Z,37.10
2018-01-31T21:51:04.963Z,36.90
2018-01-31T21:52:04.925Z,37.19
2018-01-31T21:53:04.889Z,37.10
2018-01-31T21:54:04.889Z,37.38
2018-01-31T21:55:04.824Z,37.10
2018-01-31T21:56:04.789Z,36.71
2018-01-31T21:57:04.762Z,36.61
2018-01-31T21:58:04.730Z,36.61
2018-01-31T21:59:04.724Z,36.80
2018-01-31T22:00:04.661Z,36.71
2018-01-31T22:01:04.626Z,36.71
2018-01-31T22:02:04.596Z,36.80
2018-01-31T22:03:04.563Z,36.90
2018-01-31T22:04:04.532Z,37.00
2018-01-31T22:05:04.520Z,36.61
2018-01-31T22:06:04.461Z,36.42
2018-01-31T22:07:04.425Z,36.61
2018-01-31T22:08:04.398Z,36.61
2018-01-31T22:09:04.365Z,36.71
2018-01-31T22:10:04.350Z,36.71
2018-01-31T22:11:04.298Z,36.61
2018-01-31T22:12:04.266Z,36.52
2018-01-31T22:13:04.228Z,36.52
2018-01-31T22:14:04.202Z,36.61
2018-01-31T22:15:04.163Z,36.61
2018-01-31T22:16:04.160Z,36.61
2018-01-31T22:17:04.098Z,36.80
2018-01-31T22:18:04.067Z,36.61
2018-01-31T22:19:04.038Z,36.42
2018-01-31T22:20:03.997Z,36.61
2018-01-31T22:21:03.970Z,36.61
2018-01-31T22:22:03.973Z,36.61
2018-01-31T22:23:03.904Z,36.80
2018-01-31T22:24:03.864Z,36.52
2018-01-31T22:25:03.834Z,36.80
2018-01-31T22:26:03.832Z,36.61
2018-01-31T22:27:03.767Z,36.61
2018-01-31T22:28:03.732Z,36.80
2018-01-31T22:29:03.701Z,36.52
2018-01-31T22:30:03.670Z,36.71
2018-01-31T22:31:03.778Z,36.61
2018-01-31T22:32:03.601Z,36.32
2018-01-31T22:33:03.567Z,36.22
2018-01-31T22:34:03.540Z,36.80
2018-01-31T22:35:03.503Z,36.22
2018-01-31T22:36:03.474Z,36.52
2018-01-31T22:37:03.472Z,36.32
2018-01-31T22:38:03.406Z,36.13
2018-01-31T22:39:03.374Z,36.42
2018-01-31T22:40:03.341Z,36.42
2018-01-31T22:41:03.304Z,36.32
2018-01-31T22:42:03.274Z,36.61
2018-01-31T22:43:03.270Z,36.32
2018-01-31T22:44:03.205Z,36.32
2018-01-31T22:45:03.175Z,36.42
2018-01-31T22:46:03.140Z,36.22
2018-01-31T22:47:03.142Z,36.42
2018-01-31T22:48:03.074Z,36.52
2018-01-31T22:49:03.040Z,36.71
2018-01-31T22:50:03.008Z,36.22
2018-01-31T22:51:02.974Z,36.52
2018-01-31T22:52:02.939Z,36.42
2018-01-31T22:53:02.941Z,36.61
2018-01-31T22:54:02.878Z,36.42
2018-01-31T22:55:02.849Z,36.42
2018-01-31T22:56:02.812Z,36.42
2018-01-31T22:57:02.779Z,36.22
2018-01-31T22:58:02.778Z,36.52
2018-01-31T22:59:02.710Z,36.32
2018-01-31T23:00:02.680Z,36.61
2018-01-31T23:01:02.648Z,36.42
2018-01-31T23:02:02.614Z,36.22
2018-01-31T23:03:02.610Z,36.32
2018-01-31T23:04:02.544Z,36.32
2018-01-31T23:05:02.514Z,36.42
2018-01-31T23:07:35.468Z,36.42
2018-01-31T23:08:35.599Z,36.32
2018-01-31T23:09:35.415Z,36.61
2018-01-31T23:10:35.367Z,36.61
2018-01-31T23:11:35.337Z,36.32
2018-01-31T23:12:35.305Z,36.22
2018-01-31T23:13:35.268Z,36.42
2018-01-31T23:14:35.259Z,36.32
2018-01-31T23:15:35.207Z,36.22
2018-01-31T23:16:35.173Z,36.13
2018-01-31T23:17:35.139Z,36.32
2018-01-31T23:18:35.106Z,36.42
2018-01-31T23:19:35.068Z,36.52
2018-01-31T23:20:35.074Z,36.22
2018-01-31T23:21:35.009Z,36.22
2018-01-31T23:22:34.971Z,36.22
2018-01-31T23:23:34.938Z,36.22
2018-01-31T23:24:34.933Z,36.22
2018-01-31T23:25:34.877Z,36.22
2018-01-31T23:26:34.838Z,36.42
2018-01-31T23:27:34.809Z,36.22
2018-01-31T23:28:34.772Z,36.13
2018-01-31T23:29:34.774Z,36.42
2018-01-31T23:30:34.706Z,36.32
2018-01-31T23:31:34.673Z,36.22
2018-01-31T23:32:34.639Z,36.32
2018-01-31T23:33:34.612Z,36.13
2018-01-31T23:34:34.597Z,36.22
2018-01-31T23:35:34.540Z,36.32
2018-01-31T23:36:34.510Z,36.32
2018-01-31T23:37:34.476Z,36.32
2018-01-31T23:38:34.444Z,36.32
2018-01-31T23:39:34.413Z,36.22
2018-01-31T23:40:34.413Z,36.32
2018-01-31T23:41:34.346Z,36.32
2018-01-31T23:42:34.313Z,36.32
2018-01-31T23:43:34.274Z,36.13
2018-01-31T23:44:34.247Z,36.13
2018-01-31T23:45:34.244Z,36.22
2018-01-31T23:46:34.181Z,36.32
2018-01-31T23:47:34.142Z,36.13
2018-01-31T23:48:34.111Z,36.32
2018-01-31T23:49:34.080Z,36.22
2018-01-31T23:50:34.080Z,36.13
2018-01-31T23:51:34.014Z,36.22
2018-01-31T23:52:33.984Z,36.22
2018-01-31T23:53:33.949Z,36.42
2018-01-31T23:54:33.915Z,36.13
2018-01-31T23:55:33.880Z,36.32
2018-01-31T23:56:33.868Z,36.22
2018-01-31T23:57:33.815Z,36.22
2018-01-31T23:58:33.782Z,36.42
2018-01-31T23:59:33.750Z,36.32
